Time;durP1;ratioP1;P1;durP2;ratioP2;P2;SDS_P1;SDS_P2;PMS_P1;PMS_P2;Temp;Humidity;BMP_temperature;BMP_pressure;BME280_temperature;BME280_humidity;BME280_pressure;Samples;Min_cycle;Max_cycle;Signal;HPM_P1;HPM_P2
2022/06/07 04:12:47;;;;;;;13.55;10.60;;;;;;;10.82;100.00;100610.91;4917167;23;20052;-80
2022/06/07 04:15:14;;;;;;;13.25;10.80;;;;;;;10.82;100.00;100610.91;4886179;29;20051;-79
2022/06/07 04:17:40;;;;;;;13.02;10.25;;;;;;;10.84;100.00;100603.78;4882329;29;20052;-80
2022/06/07 04:20:08;;;;;;;12.43;9.73;;;;;;;10.85;100.00;100601.16;4897818;29;20043;-79
2022/06/07 04:22:34;;;;;;;14.75;9.57;;;;;;;10.87;100.00;100607.25;4885070;29;20116;-79
2022/06/07 04:25:01;;;;;;;14.63;11.13;;;;;;;10.96;100.00;100592.97;4890780;29;20037;-79
2022/06/07 04:27:28;;;;;;;12.98;10.45;;;;;;;11.02;100.00;100595.47;4884968;29;20045;-79
2022/06/07 04:29:54;;;;;;;14.07;10.55;;;;;;;11.04;100.00;100595.44;4846816;29;20041;-79
2022/06/07 04:32:22;;;;;;;12.98;10.55;;;;;;;11.11;100.00;100592.59;4883766;29;20115;-79
2022/06/07 04:34:48;;;;;;;13.10;10.82;;;;;;;11.17;100.00;100591.56;4865584;29;20560;-79
2022/06/07 04:37:17;;;;;;;13.30;10.88;;;;;;;11.21;100.00;100591.47;4876966;29;20041;-80
2022/06/07 04:39:43;;;;;;;15.65;11.18;;;;;;;11.33;100.00;100592.06;4887784;29;20053;-79
2022/06/07 04:42:10;;;;;;;14.70;11.43;;;;;;;11.34;100.00;100586.75;4859295;29;20045;-79
2022/06/07 04:44:37;;;;;;;14.02;10.20;;;;;;;11.44;100.00;100596.22;4863017;29;20121;-79
2022/06/07 04:47:03;;;;;;;13.60;10.45;;;;;;;11.46;100.00;100596.16;4892637;29;20101;-79
2022/06/07 04:49:30;;;;;;;11.98;10.40;;;;;;;11.53;100.00;100600.41;4865374;29;20551;-79
2022/06/07 04:51:57;;;;;;;13.27;11.50;;;;;;;11.67;100.00;100602.66;4894779;29;20068;-79
2022/06/07 04:54:23;;;;;;;13.80;11.52;;;;;;;11.76;100.00;100594.50;4883809;29;20100;-80
2022/06/07 04:56:50;;;;;;;11.55;9.25;;;;;;;12.29;100.00;100598.38;4870772;29;20453;-79
2022/06/07 04:59:17;;;;;;;12.32;9.05;;;;;;;12.60;100.00;100600.09;4865471;29;20049;-79
2022/06/07 05:01:44;;;;;;;10.43;8.80;;;;;;;12.66;100.00;100598.16;4880950;29;20099;-80
2022/06/07 05:04:11;;;;;;;10.63;8.98;;;;;;;12.71;100.00;100605.09;4867251;29;20055;-80
2022/06/07 05:06:41;;;;;;;12.18;9.82;;;;;;;12.78;100.00;100603.97;4878335;29;21233;-80
2022/06/07 05:09:22;;;;;;;9.77;8.77;;;;;;;12.84;100.00;100602.03;4893613;29;20101;-79
2022/06/07 05:11:50;;;;;;;11.50;9.40;;;;;;;13.16;100.00;100601.03;4871187;29;20410;-79
2022/06/07 05:14:17;;;;;;;9.48;7.85;;;;;;;13.73;100.00;100596.53;4886869;29;20072;-80
2022/06/07 05:16:44;;;;;;;7.75;6.70;;;;;;;13.98;100.00;100604.50;4882726;29;20048;-79
2022/06/07 05:19:12;;;;;;;7.70;6.68;;;;;;;14.03;100.00;100614.03;4863690;29;20402;-79
2022/06/07 05:21:41;;;;;;;8.25;7.10;;;;;;;13.92;100.00;100608.22;4865028;29;20052;-79
2022/06/07 05:24:09;;;;;;;8.45;7.43;;;;;;;13.86;100.00;100616.41;4870208;29;20049;-79
2022/06/07 05:26:48;;;;;;;8.98;7.07;;;;;;;13.87;100.00;100617.28;4893601;29;20044;-79
2022/06/07 05:29:48;;;;;;;10.35;7.53;;;;;;;14.01;100.00;100620.31;4890039;29;20036;-79
2022/06/07 05:32:16;;;;;;;8.35;7.00;;;;;;;14.03;100.00;100616.69;4878922;29;20100;-79
2022/06/07 05:34:52;;;;;;;8.85;7.30;;;;;;;14.19;100.00;100616.13;4871071;29;20052;-80
2022/06/07 05:37:21;;;;;;;7.00;6.30;;;;;;;15.69;100.00;100612.06;4861338;29;20041;-79
2022/06/07 05:39:48;;;;;;;6.38;5.18;;;;;;;17.91;100.00;100610.59;4860915;29;20123;-79
2022/06/07 05:42:17;;;;;;;7.05;4.30;;;;;;;20.68;94.95;100600.94;4900269;29;20039;-80
2022/06/07 05:44:44;;;;;;;5.63;4.63;;;;;;;22.56;74.74;100606.28;4851920;29;20053;-79
2022/06/07 05:47:14;;;;;;;4.32;3.50;;;;;;;24.42;65.67;100608.50;4876837;29;20044;-80
2022/06/07 05:49:40;;;;;;;4.45;4.05;;;;;;;25.06;59.60;100618.72;4881967;29;20044;-80
2022/06/07 05:52:07;;;;;;;3.53;3.22;;;;;;;26.12;57.30;100619.66;4864402;29;20048;-80
2022/06/07 05:54:38;;;;;;;4.05;3.72;;;;;;;26.12;54.48;100624.22;4876571;29;20042;-79
2022/06/07 05:57:06;;;;;;;3.67;3.38;;;;;;;26.72;53.15;100628.88;4861738;29;20040;-79
2022/06/07 05:59:34;;;;;;;3.47;3.17;;;;;;;26.85;52.95;100620.53;4882351;29;20096;-80
2022/06/07 06:02:03;;;;;;;4.20;3.80;;;;;;;25.93;55.62;100633.94;4866679;29;20083;-79
2022/06/07 06:04:30;;;;;;;3.53;3.22;;;;;;;25.98;54.77;100622.69;4874824;29;20041;-79
2022/06/07 06:06:58;;;;;;;3.88;3.40;;;;;;;24.65;60.76;100636.38;4866541;29;20072;-80
2022/06/07 06:12:11;;;;;;;3.83;3.20;;;;;;;23.92;64.10;100637.53;4875426;29;20064;-80
2022/06/07 06:14:40;;;;;;;3.78;2.72;;;;;;;22.66;68.86;100640.50;4866155;29;20115;-80
2022/06/07 06:17:07;;;;;;;3.83;2.80;;;;;;;22.57;66.21;100635.78;4906112;29;20529;-81
2022/06/07 06:19:39;;;;;;;3.38;2.70;;;;;;;21.54;67.80;100628.50;4869103;29;20634;-79
2022/06/07 06:22:07;;;;;;;3.10;2.80;;;;;;;21.48;74.45;100638.78;4868496;29;20037;-80
2022/06/07 06:24:33;;;;;;;3.90;2.90;;;;;;;21.42;75.38;100633.81;4874387;29;20059;-79
2022/06/07 06:27:00;;;;;;;2.95;2.60;;;;;;;21.43;80.80;100633.69;4865242;29;20048;-79
2022/06/07 06:29:26;;;;;;;2.95;2.60;;;;;;;21.53;76.66;100636.66;4862305;29;20455;-79
2022/06/07 06:31:54;;;;;;;3.30;2.55;;;;;;;21.79;71.36;100633.09;4878175;29;20258;-80
2022/06/07 06:34:21;;;;;;;3.78;3.15;;;;;;;21.45;75.93;100633.63;4876874;29;20120;-79
2022/06/07 06:36:57;;;;;;;3.63;2.95;;;;;;;21.53;71.88;100637.53;4903267;29;20570;-80
2022/06/07 06:39:27;;;;;;;3.90;2.58;;;;;;;21.31;73.30;100631.84;4864275;29;20507;-79
2022/06/07 06:41:54;;;;;;;4.75;2.78;;;;;;;21.08;76.72;100631.47;4879389;29;20096;-79
2022/06/07 06:44:21;;;;;;;3.35;2.58;;;;;;;21.11;75.30;100633.13;4871322;29;20426;-79
2022/06/07 06:46:49;;;;;;;3.08;2.50;;;;;;;21.32;76.89;100633.56;4873537;29;20040;-79
2022/06/07 06:49:18;;;;;;;2.58;2.30;;;;;;;21.53;75.98;100636.66;4871505;29;20104;-80
2022/06/07 06:52:06;;;;;;;3.33;2.22;;;;;;;21.62;70.16;100636.06;4860171;29;20049;-80
2022/06/07 06:54:43;;;;;;;2.63;2.00;;;;;;;21.60;66.63;100636.13;4862226;29;20559;-79
2022/06/07 06:57:09;;;;;;;4.07;3.00;;;;;;;21.55;78.22;100638.28;4889418;29;20105;-80
2022/06/07 06:59:36;;;;;;;2.97;2.53;;;;;;;21.77;68.12;100639.53;4857624;29;20049;-80
2022/06/07 07:02:03;;;;;;;2.78;2.20;;;;;;;21.67;66.87;100639.28;4894373;29;20056;-80
2022/06/07 07:04:30;;;;;;;3.05;2.28;;;;;;;21.27;67.91;100635.66;4878726;29;20052;-79
2022/06/07 07:06:57;;;;;;;2.38;2.10;;;;;;;21.28;65.94;100640.13;4862404;29;20749;-79
2022/06/07 07:09:26;;;;;;;4.60;2.75;;;;;;;21.43;67.15;100646.28;4894131;29;20037;-80
2022/06/07 07:11:57;;;;;;;3.92;2.42;;;;;;;21.15;67.55;100648.06;4865487;29;20135;-80
2022/06/07 07:14:25;;;;;;;5.25;2.50;;;;;;;20.89;77.57;100648.88;4867969;29;20048;-80
2022/06/07 07:16:56;;;;;;;3.22;2.80;;;;;;;20.72;78.95;100648.09;4898970;29;20048;-79
2022/06/07 07:19:22;;;;;;;2.97;2.65;;;;;;;21.26;70.33;100642.84;4858954;29;20135;-80
2022/06/07 07:21:50;;;;;;;3.65;2.42;;;;;;;21.58;70.82;100648.81;4894110;29;20075;-79
2022/06/07 07:24:23;;;;;;;3.00;2.15;;;;;;;21.93;62.88;100649.13;4884653;29;20230;-79
2022/06/07 07:26:52;;;;;;;2.10;1.90;;;;;;;22.18;62.68;100644.81;4858702;29;20033;-79
2022/06/07 07:29:20;;;;;;;2.60;2.40;;;;;;;22.07;62.11;100645.56;4862197;29;20047;-80
2022/06/07 07:31:48;;;;;;;3.63;2.42;;;;;;;22.26;62.77;100646.97;4860780;29;20490;-79
2022/06/07 07:34:18;;;;;;;2.80;2.35;;;;;;;22.53;62.14;100644.16;4864872;29;20053;-79
2022/06/07 07:36:48;;;;;;;3.08;2.13;;;;;;;22.61;65.92;100644.50;4861720;29;20464;-79
2022/06/07 07:39:22;;;;;;;3.15;2.35;;;;;;;22.57;63.48;100641.16;4874715;29;20044;-79
2022/06/07 07:41:51;;;;;;;3.17;2.55;;;;;;;22.65;59.26;100644.19;4866561;29;20040;-80
2022/06/07 07:44:18;;;;;;;2.30;2.10;;;;;;;22.54;59.16;100641.41;4865349;29;20040;-79
2022/06/07 07:46:48;;;;;;;2.83;2.22;;;;;;;22.60;59.35;100648.16;4851770;29;20072;-78
2022/06/07 07:49:18;;;;;;;2.70;2.20;;;;;;;22.29;59.64;100649.47;4868804;29;20139;-79
2022/06/07 07:51:48;;;;;;;3.17;2.13;;;;;;;22.11;57.75;100644.38;4865722;29;20055;-78
2022/06/07 07:54:19;;;;;;;2.22;2.03;;;;;;;22.14;61.68;100640.63;4869544;29;20406;-79
2022/06/07 07:56:47;;;;;;;2.47;2.28;;;;;;;22.48;59.00;100644.50;4880274;29;20032;-78
2022/06/07 07:59:15;;;;;;;2.95;2.40;;;;;;;22.90;55.18;100639.75;4879417;29;20562;-78
2022/06/07 08:01:43;;;;;;;2.42;2.22;;;;;;;23.43;58.68;100625.03;4866898;29;20148;-78
2022/06/07 08:04:10;;;;;;;2.95;2.15;;;;;;;23.78;52.14;100625.09;4863794;29;20048;-78
2022/06/07 08:06:37;;;;;;;2.80;1.90;;;;;;;24.04;49.88;100620.41;4874989;29;20041;-79
2022/06/07 08:09:08;;;;;;;2.88;1.92;;;;;;;24.25;53.03;100619.72;4866833;29;20051;-79
2022/06/07 08:11:41;;;;;;;2.08;1.80;;;;;;;24.31;49.48;100613.84;4864955;29;20052;-79
2022/06/07 08:14:17;;;;;;;2.80;2.13;;;;;;;24.38;51.52;100612.41;4857444;29;20119;-78
2022/06/07 08:16:45;;;;;;;3.38;1.70;;;;;;;24.61;48.75;100607.88;4886856;29;20139;-79
2022/06/07 08:19:12;;;;;;;2.33;2.10;;;;;;;24.73;52.18;100606.91;4885676;29;20135;-80
2022/06/07 08:21:40;;;;;;;2.75;2.00;;;;;;;24.74;51.26;100611.31;4886998;29;20037;-80
2022/06/07 08:24:08;;;;;;;3.15;2.50;;;;;;;24.57;50.96;100603.72;4865147;29;20055;-79
2022/06/07 08:26:35;;;;;;;2.55;2.03;;;;;;;24.02;52.18;100608.00;4880084;29;20073;-79
2022/06/07 08:29:03;;;;;;;2.20;2.00;;;;;;;23.77;52.72;100603.63;4894075;29;20066;-78
2022/06/07 08:31:31;;;;;;;3.40;1.70;;;;;;;23.90;51.02;100601.72;4861067;29;20518;-79
2022/06/07 08:39:31;;;;;;;1.67;1.58;;;;;;;25.22;46.77;100589.41;4885642;29;20059;-79
2022/06/07 08:42:02;;;;;;;1.95;1.48;;;;;;;25.42;44.31;100596.72;4873619;29;20044;-81
2022/06/07 08:44:39;;;;;;;2.53;1.58;;;;;;;25.33;44.21;100588.53;4871466;29;20052;-80
2022/06/07 08:47:15;;;;;;;1.92;1.65;;;;;;;25.15;43.92;100580.97;4877765;29;20058;-78
2022/06/07 08:49:42;;;;;;;2.10;1.40;;;;;;;25.52;44.89;100575.16;4870934;29;20218;-79
2022/06/07 08:52:16;;;;;;;1.92;1.73;;;;;;;25.67;42.42;100573.88;4874204;29;20045;-78
2022/06/07 08:54:43;;;;;;;1.50;1.40;;;;;;;25.87;43.52;100576.75;4880491;29;20463;-80
2022/06/07 08:57:24;;;;;;;1.30;1.20;;;;;;;26.11;40.87;100574.63;4866024;29;20052;-79
2022/06/07 09:00:12;;;;;;;3.08;1.90;;;;;;;26.07;41.17;100574.06;4882902;29;20040;-78
2022/06/07 09:02:50;;;;;;;2.22;1.38;;;;;;;25.93;40.06;100582.50;4865054;29;20056;-78
2022/06/07 09:05:17;;;;;;;1.65;1.30;;;;;;;25.81;39.77;100576.31;4883560;29;20044;-78
2022/06/07 09:07:44;;;;;;;2.38;1.40;;;;;;;25.75;41.83;100578.66;4876023;29;20036;-78
2022/06/07 09:13:12;;;;;;;4.20;1.77;;;;;;;25.22;40.34;100571.34;4884217;29;20041;-78
2022/06/07 09:15:39;;;;;;;2.38;1.33;;;;;;;25.30;41.50;100569.84;4886606;29;20047;-78
2022/06/07 09:18:07;;;;;;;2.58;1.38;;;;;;;24.86;42.32;100575.19;4863716;29;20052;-78
2022/06/07 09:20:39;;;;;;;2.08;1.65;;;;;;;24.62;43.18;100569.94;4886004;29;20082;-80
2022/06/07 09:23:27;;;;;;;1.55;1.45;;;;;;;24.37;41.22;100562.06;4883207;29;20131;-79
2022/06/07 09:25:56;;;;;;;1.90;1.30;;;;;;;24.99;43.04;100561.56;4895249;29;20065;-79
2022/06/07 09:28:30;;;;;;;2.28;1.38;;;;;;;25.31;42.44;100555.31;4872612;29;20052;-80
2022/06/07 09:30:57;;;;;;;1.90;1.50;;;;;;;25.42;42.03;100555.31;4877508;29;20064;-79
2022/06/07 09:33:29;;;;;;;1.60;1.50;;;;;;;25.78;44.88;100552.19;4888829;29;20066;-79
2022/06/07 09:36:01;;;;;;;1.70;1.60;;;;;;;25.72;40.28;100547.28;4891433;29;20116;-80
2022/06/07 09:38:42;;;;;;;1.63;1.40;;;;;;;26.23;42.20;100542.91;4875110;29;20052;-79
2022/06/07 09:41:36;;;;;;;2.15;1.95;;;;;;;26.12;41.51;100538.44;4845985;29;20093;-80
2022/06/07 09:44:18;;;;;;;4.60;1.77;;;;;;;26.35;40.22;100536.44;4875007;29;20045;-79
2022/06/07 09:46:48;;;;;;;3.28;1.92;;;;;;;26.31;41.38;100533.09;4872969;29;20041;-78
2022/06/07 09:49:30;;;;;;;2.47;1.70;;;;;;;26.29;39.75;100526.13;4878050;29;20072;-79
2022/06/07 09:52:23;;;;;;;2.25;1.50;;;;;;;26.35;38.06;100517.47;4898756;29;20050;-79
2022/06/07 09:54:58;;;;;;;2.88;1.83;;;;;;;26.04;40.29;100527.41;4868987;29;20044;-79
2022/06/07 09:57:32;;;;;;;3.60;1.80;;;;;;;26.09;40.76;100519.78;4881543;29;20032;-80
2022/06/07 10:00:18;;;;;;;2.28;2.00;;;;;;;25.99;39.79;100510.75;4888835;29;20052;-80
2022/06/07 10:03:12;;;;;;;2.00;1.75;;;;;;;25.65;41.08;100516.34;4865097;29;20040;-80
2022/06/07 10:06:18;;;;;;;6.35;5.85;;;;;;;25.76;42.07;100513.59;4868366;29;20044;-81
2022/06/07 10:08:54;;;;;;;4.70;4.25;;;;;;;25.41;41.19;100510.31;4853847;29;21773;-79
2022/06/07 10:11:28;;;;;;;4.45;3.58;;;;;;;25.39;41.42;100513.16;4883247;29;20036;-80
2022/06/07 10:14:10;;;;;;;9.68;7.63;;;;;;;25.22;43.41;100508.28;4850114;29;20041;-79
2022/06/07 10:16:44;;;;;;;240.27;114.03;;;;;;;24.18;41.94;100503.25;4874503;29;20044;-80
2022/06/07 10:19:33;;;;;;;4.05;3.70;;;;;;;24.54;44.96;100498.59;4875990;29;20079;-78
2022/06/07 10:22:15;;;;;;;3.53;2.55;;;;;;;24.58;44.81;100500.94;4867742;29;20044;-80
2022/06/07 10:24:47;;;;;;;2.47;1.83;;;;;;;25.05;44.05;100493.47;4879700;29;20056;-79
2022/06/07 10:27:30;;;;;;;2.70;2.00;;;;;;;24.77;43.03;100488.63;4883030;29;20052;-80
2022/06/07 10:30:18;;;;;;;1.95;1.50;;;;;;;24.79;43.68;100479.41;4875179;29;20075;-80
2022/06/07 10:33:24;;;;;;;2.20;1.80;;;;;;;25.42;44.23;100480.44;4861331;29;20047;-81
2022/06/07 10:36:00;;;;;;;3.17;1.85;;;;;;;25.93;40.41;100468.81;4894273;29;20047;-80
2022/06/07 10:38:38;;;;;;;3.30;2.13;;;;;;;25.87;38.80;100465.78;4892203;29;20044;-81
2022/06/07 10:41:21;;;;;;;3.13;1.80;;;;;;;25.93;40.34;100467.97;4894208;29;20079;-80
2022/06/07 10:44:13;;;;;;;2.17;1.65;;;;;;;25.55;38.95;100475.66;4887705;29;20134;-81
2022/06/07 10:46:43;;;;;;;1.77;1.55;;;;;;;25.37;39.71;100473.69;4873621;29;20040;-80
2022/06/07 10:49:19;;;;;;;2.58;1.77;;;;;;;25.21;42.03;100472.28;4891195;29;20048;-78
2022/06/07 10:55:04;;;;;;;2.38;1.60;;;;;;;25.08;44.72;100462.66;4864473;29;20120;-81
2022/06/07 10:58:04;;;;;;;3.05;1.65;;;;;;;25.13;42.29;100452.28;4893137;29;20045;-79
2022/06/07 11:00:35;;;;;;;3.88;1.65;;;;;;;24.67;39.41;100466.91;4886294;29;20475;-81
2022/06/07 11:03:31;;;;;;;1.63;1.52;;;;;;;24.54;42.38;100463.50;4867828;29;20041;-78
2022/06/07 11:09:20;;;;;;;4.00;1.88;;;;;;;24.49;43.38;100463.03;4872132;29;20074;-80
2022/06/07 11:12:06;;;;;;;1.45;1.30;;;;;;;24.32;41.62;100448.19;4884218;29;20055;-79
2022/06/07 11:14:41;;;;;;;1.60;1.40;;;;;;;24.50;44.64;100454.78;4865175;29;20135;-78
2022/06/07 11:17:35;;;;;;;2.80;1.60;;;;;;;24.42;44.13;100449.16;4867623;29;20127;-79
2022/06/07 11:20:17;;;;;;;3.17;1.65;;;;;;;24.52;44.22;100450.13;4888589;29;20151;-79
2022/06/07 11:23:15;;;;;;;3.22;1.63;;;;;;;24.70;43.79;100445.03;4862928;29;20044;-79
2022/06/07 11:26:08;;;;;;;3.60;1.70;;;;;;;24.57;42.45;100445.22;4853235;29;20091;-81
2022/06/07 11:28:53;;;;;;;1.85;1.60;;;;;;;23.86;41.66;100447.31;4863046;29;20048;-78
2022/06/07 11:31:41;;;;;;;2.63;1.60;;;;;;;23.81;45.77;100454.06;4864475;29;20425;-79
2022/06/07 11:34:33;;;;;;;2.10;1.70;;;;;;;23.67;44.35;100451.59;4884564;29;20105;-79
2022/06/07 11:37:20;;;;;;;2.05;1.80;;;;;;;23.53;46.11;100444.53;4847136;29;20498;-78
2022/06/07 11:39:56;;;;;;;2.42;1.52;;;;;;;23.57;44.69;100443.31;4872606;29;20041;-78
2022/06/07 11:42:34;;;;;;;1.50;1.40;;;;;;;23.64;47.38;100451.84;4884632;29;20041;-79
2022/06/07 11:45:23;;;;;;;2.53;1.92;;;;;;;23.56;43.29;100449.69;4863840;29;20037;-79
2022/06/07 11:48:08;;;;;;;2.38;1.60;;;;;;;23.53;44.97;100448.06;4875317;29;20520;-78
2022/06/07 11:50:45;;;;;;;3.90;1.75;;;;;;;23.41;46.08;100445.50;4899018;29;20100;-79
2022/06/07 11:53:27;;;;;;;3.15;1.55;;;;;;;23.34;46.86;100446.94;4887395;29;20123;-78
2022/06/07 11:56:11;;;;;;;4.05;1.67;;;;;;;23.36;44.42;100450.38;4868938;29;20096;-79
2022/06/07 11:59:01;;;;;;;;;;;;;;;23.40;44.88;100447.34;4870975;29;20108;-78
2022/06/07 12:01:40;;;;;;;5.15;1.90;;;;;;;23.55;47.16;100458.78;4866630;29;19931;-78
2022/06/07 12:04:29;;;;;;;3.08;1.90;;;;;;;23.48;47.54;100450.28;4881825;29;20172;-77
2022/06/07 12:07:15;;;;;;;2.13;1.55;;;;;;;23.46;42.37;100446.88;4898899;29;20044;-78
2022/06/07 12:09:47;;;;;;;2.70;1.40;;;;;;;23.37;42.13;100436.75;4897641;29;20044;-79
2022/06/07 12:16:19;;;;;;;2.22;1.35;;;;;;;25.22;37.90;100432.56;4862012;29;20045;-78
2022/06/07 12:18:55;;;;;;;1.98;1.23;;;;;;;25.84;37.74;100431.72;4861291;29;20041;-78
2022/06/07 12:21:23;;;;;;;2.50;1.40;;;;;;;26.03;37.43;100414.72;4878708;29;20044;-78
2022/06/07 12:23:52;;;;;;;1.67;1.33;;;;;;;25.72;38.90;100412.00;4863911;29;20048;-78
2022/06/07 12:26:28;;;;;;;1.65;1.30;;;;;;;25.50;39.63;100417.56;4887084;29;20110;-77
2022/06/07 12:29:02;;;;;;;1.40;1.30;;;;;;;25.31;40.49;100428.22;4871166;29;20111;-78
2022/06/07 12:31:33;;;;;;;1.60;1.30;;;;;;;25.20;41.59;100415.63;4874280;29;20040;-80
2022/06/07 12:34:02;;;;;;;2.00;1.42;;;;;;;24.71;41.57;100415.19;4874734;29;20044;-77
2022/06/07 12:36:32;;;;;;;1.58;1.40;;;;;;;24.67;42.19;100416.44;4881953;29;20036;-79
2022/06/07 12:39:09;;;;;;;1.85;1.48;;;;;;;24.50;41.17;100408.88;4848876;29;20134;-77
2022/06/07 12:41:45;;;;;;;2.00;1.70;;;;;;;24.53;40.68;100410.47;4879222;29;20051;-78
2022/06/07 12:44:21;;;;;;;1.73;1.30;;;;;;;24.83;39.92;100405.22;4873657;29;20045;-77
2022/06/07 12:46:48;;;;;;;1.40;1.13;;;;;;;25.19;40.47;100403.97;4876572;29;20049;-78
2022/06/07 12:49:24;;;;;;;3.90;1.25;;;;;;;25.12;39.08;100397.34;4878674;29;20037;-77
2022/06/07 12:51:59;;;;;;;2.47;1.50;;;;;;;25.42;39.42;100391.16;4876263;29;20136;-77
2022/06/07 12:54:28;;;;;;;1.65;1.40;;;;;;;25.81;37.03;100384.16;4852395;29;20047;-79
2022/06/07 12:56:57;;;;;;;1.90;1.23;;;;;;;25.67;36.97;100387.19;4875864;29;20048;-78
2022/06/07 12:59:50;;;;;;;3.08;1.15;;;;;;;25.54;37.35;100386.53;4864867;29;20047;-79
2022/06/07 13:02:22;;;;;;;1.75;1.25;;;;;;;25.36;37.85;100388.13;4880209;29;20123;-78
2022/06/07 13:04:57;;;;;;;2.00;1.23;;;;;;;25.19;36.63;100384.19;4865761;29;20047;-80
2022/06/07 13:07:30;;;;;;;3.10;1.33;;;;;;;25.39;38.09;100383.34;4876572;29;20044;-78
2022/06/07 13:10:19;;;;;;;2.30;1.40;;;;;;;25.68;36.23;100383.47;4881116;29;20191;-77
2022/06/07 13:12:57;;;;;;;2.75;1.45;;;;;;;25.80;36.07;100381.56;4895335;29;20052;-78
2022/06/07 13:15:31;;;;;;;1.65;1.20;;;;;;;25.39;35.95;100375.22;4856234;29;20052;-79
2022/06/07 13:18:08;;;;;;;2.25;1.30;;;;;;;25.36;38.18;100375.47;4890490;29;20041;-78
2022/06/07 13:20:47;;;;;;;1.20;1.10;;;;;;;25.23;36.13;100364.88;4913785;29;20044;-79
2022/06/07 13:23:26;;;;;;;1.38;1.20;;;;;;;25.25;36.90;100368.28;4909878;29;20045;-78
2022/06/07 13:26:08;;;;;;;2.03;1.30;;;;;;;25.18;36.72;100374.34;4869078;29;20117;-78
2022/06/07 13:28:35;;;;;;;1.25;1.00;;;;;;;25.33;36.37;100380.31;4853756;29;20566;-77
2022/06/07 13:31:02;;;;;;;1.90;1.50;;;;;;;25.44;35.48;100380.22;4859300;29;20661;-78
2022/06/07 13:33:34;;;;;;;1.20;1.10;;;;;;;25.38;36.77;100375.34;4876422;29;20410;-79
2022/06/07 13:36:31;;;;;;;1.83;1.40;;;;;;;25.04;35.63;100382.78;4860470;29;20037;-81
2022/06/07 13:38:58;;;;;;;1.50;1.30;;;;;;;24.81;37.92;100387.44;4890541;29;20036;-80
2022/06/07 13:41:27;;;;;;;1.42;1.10;;;;;;;24.71;36.69;100388.16;4859905;29;20487;-81
2022/06/07 13:44:01;;;;;;;1.88;1.10;;;;;;;24.58;40.07;100392.03;4874457;29;20521;-80
2022/06/07 13:46:36;;;;;;;1.73;1.20;;;;;;;24.45;38.78;100377.84;4848748;29;20100;-80
2022/06/07 13:55:42;;;;;;;4.13;1.60;;;;;;;24.18;40.03;100383.63;4893931;29;20414;-80
2022/06/07 13:58:09;;;;;;;2.38;1.50;;;;;;;24.42;39.55;100382.50;4864692;29;20040;-80
2022/06/07 14:00:36;;;;;;;1.75;1.30;;;;;;;24.90;38.24;100376.69;4868245;29;20060;-79
2022/06/07 14:03:05;;;;;;;2.30;1.17;;;;;;;25.58;37.14;100385.28;4879959;29;20680;-80
2022/06/07 14:05:34;;;;;;;2.65;1.40;;;;;;;25.76;35.77;100369.31;4862653;29;20427;-79
2022/06/07 14:08:01;;;;;;;1.85;1.30;;;;;;;25.96;35.38;100364.81;4863699;29;20041;-80
2022/06/07 14:10:28;;;;;;;2.03;1.40;;;;;;;26.20;35.04;100368.03;4879944;29;20045;-79
2022/06/07 14:12:55;;;;;;;1.50;1.30;;;;;;;26.10;33.78;100364.44;4863935;29;20053;-80
2022/06/07 14:15:22;;;;;;;2.42;1.60;;;;;;;25.99;34.11;100360.00;4861726;29;20103;-79
2022/06/07 14:17:50;;;;;;;2.10;1.40;;;;;;;25.53;35.53;100365.88;4891330;29;20045;-79
2022/06/07 14:20:20;;;;;;;3.15;1.50;;;;;;;25.09;36.29;100370.59;4859018;29;20045;-79
2022/06/07 14:22:49;;;;;;;3.00;1.23;;;;;;;24.92;37.42;100373.84;4858113;29;20052;-79
2022/06/07 14:25:18;;;;;;;3.58;1.40;;;;;;;24.74;37.38;100367.31;4867227;29;20332;-79
2022/06/07 14:27:45;;;;;;;3.72;1.63;;;;;;;24.59;37.25;100359.50;4872535;29;20044;-78
2022/06/07 14:30:12;;;;;;;1.27;1.15;;;;;;;24.65;36.31;100366.25;4848769;29;20044;-79
2022/06/07 14:32:45;;;;;;;1.40;1.17;;;;;;;24.70;36.09;100350.47;4872362;29;20418;-79
2022/06/07 14:35:26;;;;;;;2.03;1.45;;;;;;;25.04;37.74;100355.75;4874866;29;20048;-80
2022/06/07 14:37:55;;;;;;;2.13;1.27;;;;;;;25.24;37.66;100350.38;4890665;29;20431;-79
2022/06/07 14:40:25;;;;;;;1.55;1.30;;;;;;;25.25;37.15;100352.06;4868988;29;20051;-79
2022/06/07 14:42:58;;;;;;;2.45;1.20;;;;;;;25.20;36.00;100345.34;4856124;29;20041;-80
2022/06/07 14:45:33;;;;;;;2.13;1.30;;;;;;;24.82;36.01;100354.00;4858489;29;20671;-82
2022/06/07 14:48:01;;;;;;;1.40;0.90;;;;;;;24.69;35.12;100351.47;4842682;29;20036;-80
2022/06/07 14:50:28;;;;;;;2.17;1.25;;;;;;;24.92;35.94;100353.09;4833390;29;20049;-80
2022/06/07 14:52:55;;;;;;;1.00;0.90;;;;;;;25.05;35.04;100349.34;4860251;29;20060;-80
2022/06/07 14:55:25;;;;;;;3.13;1.05;;;;;;;25.15;36.51;100345.75;4866214;29;20056;-80
2022/06/07 14:57:52;;;;;;;1.90;1.10;;;;;;;24.97;32.89;100345.47;4860355;29;20045;-79
2022/06/07 15:00:20;;;;;;;2.45;1.17;;;;;;;24.94;35.00;100328.63;4859578;29;20639;-80
2022/06/07 15:02:51;;;;;;;3.38;1.10;;;;;;;24.94;33.48;100340.28;4847972;29;20048;-81
2022/06/07 15:05:22;;;;;;;2.10;1.55;;;;;;;24.89;34.02;100341.69;4861621;29;20538;-80
2022/06/07 15:07:55;;;;;;;1.38;1.00;;;;;;;25.06;34.60;100335.75;4868012;29;20049;-81
2022/06/07 15:10:26;;;;;;;1.65;1.00;;;;;;;25.29;35.53;100336.44;4859633;29;20045;-81
2022/06/07 15:12:53;;;;;;;3.00;1.20;;;;;;;25.50;34.38;100329.16;4844591;29;20055;-79
2022/06/07 15:15:21;;;;;;;1.92;1.00;;;;;;;25.69;33.03;100322.97;4844174;29;20049;-80
2022/06/07 15:17:54;;;;;;;2.67;1.10;;;;;;;26.01;34.10;100330.09;4863695;29;20040;-81
2022/06/07 15:20:26;;;;;;;2.78;1.10;;;;;;;26.02;32.29;100323.66;4873982;29;20132;-80
2022/06/07 15:22:54;;;;;;;2.92;1.00;;;;;;;25.98;30.89;100333.03;4863991;29;20048;-82
2022/06/07 15:25:24;;;;;;;1.92;1.38;;;;;;;26.04;34.25;100330.66;4866020;29;20044;-81
2022/06/07 15:27:52;;;;;;;2.80;1.08;;;;;;;26.06;33.09;100331.38;4867170;29;20052;-81
2022/06/07 15:30:19;;;;;;;3.97;1.48;;;;;;;25.43;32.04;100327.13;4862158;29;20514;-81
2022/06/07 15:32:46;;;;;;;1.35;1.00;;;;;;;25.22;32.82;100327.13;4852729;29;20048;-82
2022/06/07 15:35:19;;;;;;;0.80;0.80;;;;;;;25.22;34.38;100328.03;4848865;29;20049;-81
2022/06/07 15:37:47;;;;;;;2.17;1.10;;;;;;;25.36;33.37;100324.09;4865015;29;20053;-82
2022/06/07 15:40:14;;;;;;;1.30;1.13;;;;;;;25.52;34.28;100318.19;4848221;29;20045;-81
2022/06/07 15:42:47;;;;;;;2.22;1.13;;;;;;;25.57;34.47;100318.66;4861098;29;20056;-80
2022/06/07 15:45:27;;;;;;;1.23;1.10;;;;;;;25.69;33.93;100312.13;4855325;29;20060;-83
2022/06/07 15:48:14;;;;;;;3.38;1.20;;;;;;;25.43;32.54;100313.59;4843398;29;20045;-82
2022/06/07 15:50:51;;;;;;;3.60;1.23;;;;;;;25.25;32.63;100313.38;4852223;29;20049;-83
2022/06/07 15:53:21;;;;;;;1.33;1.00;;;;;;;25.27;34.16;100303.25;4860090;29;20070;-83
2022/06/07 15:55:49;;;;;;;1.50;1.25;;;;;;;25.36;32.68;100304.31;4869830;29;20127;-83
2022/06/07 16:01:03;;;;;;;2.08;1.20;;;;;;;25.16;34.08;100308.75;4871699;29;20418;-81
2022/06/07 16:03:31;;;;;;;2.15;1.15;;;;;;;24.65;33.65;100306.81;4873477;29;20070;-82
2022/06/07 16:05:59;;;;;;;10.30;2.33;;;;;;;24.29;35.21;100308.88;4870895;29;20108;-81
2022/06/07 16:08:26;;;;;;;1.33;1.10;;;;;;;23.92;35.48;100307.50;4863153;29;20051;-80
2022/06/07 16:10:52;;;;;;;1.25;1.00;;;;;;;23.66;35.68;100312.31;4865912;29;20807;-81
2022/06/07 16:13:20;;;;;;;1.20;1.10;;;;;;;23.44;36.86;100307.75;4874048;29;20036;-82
2022/06/07 16:15:50;;;;;;;5.90;1.63;;;;;;;23.41;36.48;100305.31;4877613;29;20055;-81
2022/06/07 16:18:19;;;;;;;1.40;1.00;;;;;;;23.29;37.13;100312.53;4861077;29;20049;-80
2022/06/07 16:20:49;;;;;;;2.58;1.35;;;;;;;23.25;37.38;100313.75;4860944;29;20407;-81
2022/06/07 16:23:16;;;;;;;1.67;1.10;;;;;;;23.20;39.60;100315.91;4849515;29;20045;-81
2022/06/07 16:25:43;;;;;;;4.70;1.40;;;;;;;23.23;38.00;100313.00;4874786;29;20617;-82
2022/06/07 16:33:42;;;;;;;2.30;1.00;;;;;;;23.26;38.63;100326.22;4877401;29;20074;-83
2022/06/07 16:36:14;;;;;;;1.08;0.93;;;;;;;23.18;39.12;100326.81;4865259;29;20048;-82
2022/06/07 16:38:43;;;;;;;1.65;1.10;;;;;;;23.16;37.93;100327.94;4866878;29;20418;-82